createdAt,value
2018-03-27T00:02:24.848Z,5.30
2018-03-27T00:04:52.489Z,5.20
2018-03-27T00:07:20.874Z,5.30
2018-03-27T00:09:48.491Z,5.20
2018-03-27T00:12:16.120Z,5.10
2018-03-27T00:14:44.508Z,5.00
2018-03-27T00:17:12.145Z,5.00
2018-03-27T00:19:39.773Z,4.80
2018-03-27T00:22:07.401Z,4.80
2018-03-27T00:24:41.320Z,4.80
2018-03-27T00:27:08.453Z,4.80
2018-03-27T00:29:48.778Z,4.80
2018-03-27T00:32:28.328Z,4.80
2018-03-27T00:35:07.728Z,4.70
2018-03-27T00:37:47.327Z,4.70
2018-03-27T00:40:26.869Z,4.70
2018-03-27T00:42:56.324Z,4.60
2018-03-27T00:45:23.952Z,4.50
2018-03-27T00:47:51.638Z,4.40
2018-03-27T00:50:19.212Z,4.60
2018-03-27T00:52:46.846Z,4.70
2018-03-27T00:55:15.234Z,4.80
2018-03-27T00:57:42.847Z,4.80
2018-03-27T01:00:10.707Z,4.80
2018-03-27T01:02:38.360Z,4.80
2018-03-27T01:05:05.989Z,4.80
2018-03-27T01:07:33.608Z,4.90
2018-03-27T01:10:01.241Z,5.00
2018-03-27T01:12:28.864Z,5.00
2018-03-27T01:14:57.246Z,5.10
2018-03-27T01:17:25.633Z,5.00
2018-03-27T01:19:53.251Z,5.00
2018-03-27T01:22:20.881Z,5.10
2018-03-27T01:24:49.272Z,4.80
2018-03-27T01:27:16.901Z,4.80
2018-03-27T01:29:44.534Z,4.70
2018-03-27T01:32:12.162Z,4.60
2018-03-27T01:34:40.567Z,4.60
2018-03-27T01:37:08.186Z,4.60
2018-03-27T01:39:35.804Z,4.60
2018-03-27T01:42:03.420Z,4.60
2018-03-27T01:44:31.058Z,4.60
2018-03-27T01:46:58.686Z,4.60
2018-03-27T01:49:26.308Z,4.50
2018-03-27T01:51:53.924Z,4.50
2018-03-27T01:54:21.573Z,4.50
2018-03-27T01:56:49.183Z,4.50
2018-03-27T01:59:16.821Z,4.60
2018-03-27T02:01:44.437Z,4.60
2018-03-27T02:04:12.068Z,4.60
2018-03-27T02:06:39.692Z,4.60
2018-03-27T02:09:07.312Z,4.60
2018-03-27T02:11:34.954Z,4.60
2018-03-27T02:14:02.569Z,4.60
2018-03-27T02:16:30.202Z,4.60
2018-03-27T02:18:57.821Z,4.60
2018-03-27T02:21:26.209Z,4.60
2018-03-27T02:23:54.593Z,4.60
2018-03-27T02:26:22.985Z,4.50
2018-03-27T02:28:50.604Z,4.50
2018-03-27T02:31:18.234Z,4.50
2018-03-27T02:33:45.845Z,4.50
2018-03-27T02:36:13.468Z,4.50
2018-03-27T02:38:41.089Z,4.50
2018-03-27T02:41:08.720Z,4.50
2018-03-27T02:43:36.336Z,4.60
2018-03-27T02:46:04.729Z,4.60
2018-03-27T02:48:32.376Z,4.60
2018-03-27T02:51:00.002Z,4.50
2018-03-27T02:53:27.627Z,4.50
2018-03-27T02:55:55.249Z,4.50
2018-03-27T02:58:22.872Z,4.50
2018-03-27T03:00:50.712Z,4.40
2018-03-27T03:03:18.298Z,4.40
2018-03-27T03:05:45.930Z,4.30
2018-03-27T03:08:13.549Z,4.30
2018-03-27T03:10:41.170Z,4.20
2018-03-27T03:13:08.787Z,4.20
2018-03-27T03:15:36.409Z,4.10
2018-03-27T03:18:04.016Z,4.10
2018-03-27T03:20:31.639Z,4.20
2018-03-27T03:22:59.261Z,4.10
2018-03-27T03:25:26.882Z,4.10
2018-03-27T03:27:55.273Z,4.00
2018-03-27T03:30:30.945Z,4.00
2018-03-27T03:32:58.578Z,4.00
2018-03-27T03:35:26.968Z,4.00
2018-03-27T03:37:54.593Z,4.00
2018-03-27T03:40:22.215Z,4.00
2018-03-27T03:42:49.835Z,3.90
2018-03-27T03:45:17.453Z,4.00
2018-03-27T03:47:45.076Z,3.80
2018-03-27T03:50:12.701Z,3.80
2018-03-27T03:52:40.326Z,3.70
2018-03-27T03:55:08.713Z,3.50
2018-03-27T03:57:36.336Z,3.50
2018-03-27T04:00:03.971Z,3.50
2018-03-27T04:02:31.592Z,3.50
2018-03-27T04:04:59.989Z,3.30
2018-03-27T04:07:28.377Z,3.50
2018-03-27T04:09:55.999Z,3.40
2018-03-27T04:12:23.628Z,3.50
2018-03-27T04:14:51.249Z,3.40
2018-03-27T04:17:31.180Z,3.30
2018-03-27T04:19:58.805Z,3.10
2018-03-27T04:22:26.438Z,3.00
2018-03-27T04:24:54.057Z,3.00
2018-03-27T04:27:21.679Z,2.90
2018-03-27T04:29:50.149Z,2.90
2018-03-27T04:32:17.772Z,2.90
2018-03-27T04:34:45.400Z,2.90
2018-03-27T04:37:13.024Z,2.90
2018-03-27T04:39:40.655Z,3.00
2018-03-27T04:42:08.289Z,3.10
2018-03-27T04:44:35.892Z,3.10
2018-03-27T04:47:03.516Z,3.10
2018-03-27T04:49:31.902Z,2.90
2018-03-27T04:52:00.295Z,2.70
2018-03-27T04:54:27.933Z,2.70
2018-03-27T04:56:55.548Z,2.70
2018-03-27T04:59:23.175Z,2.70
2018-03-27T05:01:51.568Z,2.80
2018-03-27T05:04:19.964Z,3.00
2018-03-27T05:06:47.603Z,3.00
2018-03-27T05:09:15.227Z,3.00
2018-03-27T05:11:42.861Z,2.90
2018-03-27T05:14:10.481Z,3.00
2018-03-27T05:16:38.115Z,2.90
2018-03-27T05:19:05.744Z,3.00
2018-03-27T05:21:34.142Z,3.00
2018-03-27T05:24:01.775Z,3.00
2018-03-27T05:26:29.445Z,3.00
2018-03-27T05:28:57.069Z,2.90
2018-03-27T05:31:24.685Z,2.90
2018-03-27T05:33:53.080Z,2.90
2018-03-27T05:36:21.489Z,3.00
2018-03-27T05:38:49.100Z,2.90
2018-03-27T05:41:16.729Z,3.00
2018-03-27T05:43:44.368Z,3.10
2018-03-27T05:46:12.761Z,3.10
2018-03-27T05:48:40.388Z,3.10
2018-03-27T05:51:08.013Z,3.10
2018-03-27T05:53:35.640Z,3.00
2018-03-27T05:56:04.087Z,3.10
2018-03-27T05:58:31.664Z,3.10
2018-03-27T06:00:59.285Z,3.10
2018-03-27T06:03:26.924Z,3.20
2018-03-27T06:05:54.547Z,3.20
2018-03-27T06:08:22.191Z,3.20
2018-03-27T06:10:49.808Z,3.20
2018-03-27T06:13:17.433Z,3.20
2018-03-27T06:15:45.064Z,3.20
2018-03-27T06:18:12.693Z,3.30
2018-03-27T06:20:40.316Z,3.40
2018-03-27T06:23:07.954Z,3.40
2018-03-27T06:25:35.576Z,3.40
2018-03-27T06:28:03.210Z,3.50
2018-03-27T06:30:30.840Z,3.40
2018-03-27T06:32:59.233Z,3.60
2018-03-27T06:35:27.633Z,3.60
2018-03-27T06:37:55.274Z,3.60
2018-03-27T06:40:22.896Z,3.70
2018-03-27T06:42:50.526Z,3.80
2018-03-27T06:45:18.148Z,3.80
2018-03-27T06:47:45.794Z,4.00
2018-03-27T06:50:13.404Z,4.00
2018-03-27T06:52:41.030Z,4.10
2018-03-27T06:55:09.237Z,4.20
2018-03-27T06:57:39.670Z,4.40
2018-03-27T07:00:07.300Z,4.40
2018-03-27T07:02:34.966Z,4.50
2018-03-27T07:05:02.558Z,4.60
2018-03-27T07:07:30.176Z,4.70
2018-03-27T07:09:57.834Z,4.90
2018-03-27T07:12:26.202Z,5.00
2018-03-27T07:14:54.589Z,5.20
2018-03-27T07:17:22.216Z,5.20
2018-03-27T07:19:49.902Z,5.30
2018-03-27T07:22:17.486Z,5.40
2018-03-27T07:24:45.116Z,5.60
2018-03-27T07:27:12.769Z,5.60
2018-03-27T07:29:40.382Z,5.80
2018-03-27T07:32:08.009Z,5.90
2018-03-27T07:34:35.756Z,5.90
2018-03-27T07:37:03.378Z,6.00
2018-03-27T07:39:31.009Z,6.10
2018-03-27T07:41:58.638Z,6.10
2018-03-27T07:44:26.260Z,6.20
2018-03-27T07:46:53.884Z,6.20
2018-03-27T07:49:21.504Z,6.30
2018-03-27T07:51:49.144Z,6.50
2018-03-27T07:54:16.771Z,6.60
2018-03-27T07:56:44.384Z,6.70
2018-03-27T07:59:12.003Z,7.00
2018-03-27T08:01:39.636Z,7.20
2018-03-27T08:04:08.025Z,7.30
2018-03-27T08:06:36.411Z,7.30
2018-03-27T08:09:04.924Z,7.30
2018-03-27T08:11:32.540Z,7.40
2018-03-27T08:14:00.168Z,7.50
2018-03-27T08:16:27.788Z,7.60
2018-03-27T08:18:56.174Z,7.60
2018-03-27T08:21:24.563Z,7.80
2018-03-27T08:23:52.196Z,7.70
2018-03-27T08:26:19.808Z,7.90
2018-03-27T08:28:47.424Z,8.10
2018-03-27T08:31:15.084Z,8.20
2018-03-27T08:33:42.709Z,8.30
2018-03-27T08:36:10.340Z,8.50
2018-03-27T08:38:38.724Z,8.80
2018-03-27T08:41:07.124Z,8.90
2018-03-27T08:43:35.521Z,9.00
2018-03-27T08:46:03.133Z,9.00
2018-03-27T08:48:30.757Z,9.10
2018-03-27T08:50:58.368Z,9.20
2018-03-27T08:53:25.993Z,9.30
2018-03-27T08:55:53.616Z,9.40
2018-03-27T08:58:22.008Z,9.60
2018-03-27T09:00:50.433Z,9.90
2018-03-27T09:03:18.021Z,9.90
2018-03-27T09:05:45.649Z,10.20
2018-03-27T09:08:13.268Z,10.20
2018-03-27T09:10:40.896Z,10.40
2018-03-27T09:13:08.536Z,10.70
2018-03-27T09:15:36.923Z,11.20
2018-03-27T09:18:04.549Z,11.20
2018-03-27T09:20:32.176Z,11.90
2018-03-27T09:22:59.796Z,12.20
2018-03-27T09:25:28.197Z,12.70
2018-03-27T09:27:55.833Z,12.70
2018-03-27T09:30:23.448Z,13.00
2018-03-27T09:32:51.072Z,12.90
2018-03-27T09:35:18.710Z,13.00
2018-03-27T09:37:46.325Z,13.00
2018-03-27T09:40:14.721Z,13.90
2018-03-27T09:42:42.340Z,13.80
2018-03-27T09:45:09.961Z,13.70
2018-03-27T09:47:37.581Z,13.80
2018-03-27T09:50:05.204Z,14.50
2018-03-27T09:52:32.829Z,15.10
2018-03-27T09:55:00.465Z,15.50
2018-03-27T09:57:28.085Z,15.70
2018-03-27T09:59:55.709Z,15.70
2018-03-27T10:02:23.341Z,16.20
2018-03-27T10:04:50.964Z,16.10
2018-03-27T10:07:18.584Z,16.20
2018-03-27T10:09:47.100Z,16.90
2018-03-27T10:12:14.731Z,16.70
2018-03-27T10:14:42.373Z,16.60
2018-03-27T10:17:09.992Z,17.00
2018-03-27T10:19:37.628Z,16.30
2018-03-27T10:22:05.246Z,16.10
2018-03-27T10:24:33.635Z,15.80
2018-03-27T10:27:01.258Z,15.80
2018-03-27T10:29:28.880Z,15.90
2018-03-27T10:31:56.500Z,15.70
2018-03-27T10:34:24.177Z,15.40
2018-03-27T10:36:51.757Z,15.20
2018-03-27T10:39:20.144Z,14.70
2018-03-27T10:41:47.776Z,14.70
2018-03-27T10:44:15.404Z,14.10
2018-03-27T10:46:43.042Z,14.30
2018-03-27T10:49:10.688Z,14.30
2018-03-27T10:51:38.300Z,14.10
2018-03-27T10:54:05.920Z,13.90
2018-03-27T10:56:33.546Z,14.00
2018-03-27T10:59:01.167Z,14.20
2018-03-27T11:01:29.553Z,13.80
2018-03-27T11:03:57.284Z,13.70
2018-03-27T11:06:25.641Z,14.20
2018-03-27T11:08:53.303Z,14.10
2018-03-27T11:11:20.954Z,14.30
2018-03-27T11:13:48.618Z,14.50
2018-03-27T11:16:17.043Z,14.10
2018-03-27T11:18:44.685Z,14.10
2018-03-27T11:21:12.340Z,14.50
2018-03-27T11:23:40.008Z,14.30
2018-03-27T11:26:07.646Z,13.60
2018-03-27T11:28:36.077Z,12.80
2018-03-27T11:31:03.750Z,12.80
2018-03-27T11:33:31.403Z,12.70
2018-03-27T11:35:59.189Z,12.80
2018-03-27T11:38:26.826Z,12.90
2018-03-27T11:40:54.510Z,13.00
2018-03-27T11:43:22.175Z,12.80
2018-03-27T11:45:49.830Z,12.60
2018-03-27T11:48:17.575Z,12.60
2018-03-27T11:50:45.170Z,12.30
2018-03-27T11:53:12.815Z,12.60
2018-03-27T11:55:40.506Z,13.00
2018-03-27T11:58:08.153Z,13.60
2018-03-27T12:00:35.822Z,13.80
2018-03-27T12:03:03.495Z,14.20
2018-03-27T12:05:31.864Z,13.70
2018-03-27T12:07:59.566Z,13.70
2018-03-27T12:10:27.311Z,13.70
2018-03-27T12:12:54.952Z,13.50
2018-03-27T12:15:23.367Z,13.00
2018-03-27T12:17:50.999Z,13.00
2018-03-27T12:20:19.410Z,12.80
2018-03-27T12:22:47.035Z,12.80
2018-03-27T12:25:14.664Z,12.90
2018-03-27T12:27:42.293Z,12.90
2018-03-27T12:30:09.921Z,13.00
2018-03-27T12:32:37.549Z,12.90
2018-03-27T12:35:05.177Z,12.70
2018-03-27T12:37:33.573Z,12.80
2018-03-27T12:40:01.297Z,12.80
2018-03-27T12:42:28.935Z,12.80
2018-03-27T12:44:56.522Z,12.70
2018-03-27T12:47:24.144Z,12.30
2018-03-27T12:49:51.774Z,12.20
2018-03-27T12:52:19.401Z,12.20
2018-03-27T12:54:47.020Z,12.30
2018-03-27T12:57:15.420Z,12.20
2018-03-27T12:59:43.052Z,12.20
2018-03-27T13:02:11.603Z,12.30
2018-03-27T13:04:39.239Z,12.20
2018-03-27T13:07:06.868Z,12.20
2018-03-27T13:09:35.264Z,12.20
2018-03-27T13:12:02.898Z,12.20
2018-03-27T13:14:30.524Z,12.10
2018-03-27T13:16:58.157Z,12.10
2018-03-27T13:19:25.785Z,12.00
2018-03-27T13:21:53.415Z,11.90
2018-03-27T13:24:21.045Z,11.80
2018-03-27T13:26:48.685Z,12.10
2018-03-27T13:29:16.320Z,12.20
2018-03-27T13:31:43.948Z,12.30
2018-03-27T13:34:11.576Z,12.50
2018-03-27T13:36:39.200Z,13.10
2018-03-27T13:39:07.671Z,13.80
2018-03-27T13:41:35.235Z,13.80
2018-03-27T13:44:02.871Z,13.90
2018-03-27T13:46:30.497Z,13.70
2018-03-27T13:48:58.128Z,13.00
2018-03-27T13:51:27.261Z,13.00
2018-03-27T13:53:54.892Z,13.00
2018-03-27T13:56:22.524Z,13.10
2018-03-27T13:58:50.168Z,13.20
2018-03-27T14:01:17.794Z,13.20
2018-03-27T14:03:45.417Z,13.30
2018-03-27T14:06:13.059Z,13.30
2018-03-27T14:08:40.688Z,12.90
2018-03-27T14:11:08.315Z,12.70
2018-03-27T14:13:36.069Z,12.60
2018-03-27T14:16:03.684Z,12.60
2018-03-27T14:18:31.328Z,12.50
2018-03-27T14:20:58.972Z,12.40
2018-03-27T14:23:26.596Z,12.30
2018-03-27T14:25:54.266Z,12.40
2018-03-27T14:28:29.019Z,12.30
2018-03-27T14:30:56.639Z,12.20
2018-03-27T14:33:25.033Z,11.90
2018-03-27T14:35:52.669Z,11.90
2018-03-27T14:38:20.302Z,11.90
2018-03-27T14:40:47.929Z,11.90
2018-03-27T14:43:15.564Z,11.80
2018-03-27T14:45:43.179Z,11.60
2018-03-27T14:48:11.576Z,11.40
2018-03-27T14:50:39.960Z,11.30
2018-03-27T14:53:07.644Z,11.30
2018-03-27T14:55:35.238Z,11.20
2018-03-27T14:58:02.868Z,11.00
2018-03-27T15:00:30.488Z,10.90
2018-03-27T15:02:58.121Z,10.60
2018-03-27T15:05:25.749Z,10.50
2018-03-27T15:07:53.376Z,10.40
2018-03-27T15:10:21.004Z,10.40
2018-03-27T15:12:48.632Z,10.40
2018-03-27T15:15:16.266Z,10.40
2018-03-27T15:17:43.885Z,10.40
2018-03-27T15:20:19.407Z,10.30
2018-03-27T15:22:48.538Z,10.20
2018-03-27T15:25:16.360Z,10.20
2018-03-27T15:27:44.103Z,10.10
2018-03-27T15:30:12.937Z,10.20
2018-03-27T15:32:41.442Z,10.10
2018-03-27T15:35:10.200Z,10.10
2018-03-27T15:37:38.358Z,10.20
2018-03-27T15:40:06.076Z,10.10
2018-03-27T15:42:37.075Z,10.10
2018-03-27T15:45:04.910Z,10.10
2018-03-27T15:47:33.380Z,10.00
2018-03-27T15:50:03.176Z,10.00
2018-03-27T15:52:30.943Z,10.00
2018-03-27T15:54:58.744Z,10.10
2018-03-27T15:57:27.831Z,10.00
2018-03-27T15:59:56.619Z,10.00
2018-03-27T16:02:24.414Z,10.00
2018-03-27T16:04:52.144Z,10.00
2018-03-27T16:07:19.755Z,10.00
2018-03-27T16:09:47.377Z,9.90
2018-03-27T16:12:14.989Z,9.90
2018-03-27T16:14:42.612Z,9.90
2018-03-27T16:17:10.239Z,9.90
2018-03-27T16:19:37.857Z,9.60
2018-03-27T16:22:06.253Z,9.60
2018-03-27T16:24:33.872Z,9.60
2018-03-27T16:27:01.497Z,9.50
2018-03-27T16:29:29.121Z,9.50
2018-03-27T16:31:56.742Z,9.50
2018-03-27T16:34:24.364Z,9.50
2018-03-27T16:36:52.801Z,9.30
2018-03-27T16:39:20.422Z,9.30
2018-03-27T16:41:55.601Z,9.30
2018-03-27T16:44:23.232Z,9.30
2018-03-27T16:46:51.616Z,9.20
2018-03-27T16:49:19.231Z,9.20
2018-03-27T16:51:46.856Z,9.20
2018-03-27T16:54:14.488Z,9.10
2018-03-27T16:56:42.112Z,9.00
2018-03-27T16:59:09.733Z,9.00
2018-03-27T17:01:38.126Z,9.00
2018-03-27T17:04:05.758Z,9.00
2018-03-27T17:06:33.377Z,9.00
2018-03-27T17:09:00.993Z,9.10
2018-03-27T17:11:28.612Z,8.90
2018-03-27T17:13:56.242Z,8.70
2018-03-27T17:16:26.654Z,8.80
2018-03-27T17:18:54.273Z,8.70
2018-03-27T17:21:21.904Z,8.70
2018-03-27T17:23:50.305Z,8.60
2018-03-27T17:26:17.921Z,8.60
2018-03-27T17:28:45.548Z,8.60
2018-03-27T17:31:13.173Z,8.70
2018-03-27T17:33:40.798Z,8.60
2018-03-27T17:36:08.416Z,8.60
2018-03-27T17:38:36.804Z,8.50
2018-03-27T17:41:05.229Z,8.40
2018-03-27T17:43:32.840Z,8.40
2018-03-27T17:46:00.464Z,8.50
2018-03-27T17:48:28.093Z,8.40
2018-03-27T17:50:55.745Z,8.40
2018-03-27T17:53:30.733Z,8.40
2018-03-27T17:55:58.365Z,8.40
2018-03-27T17:58:25.988Z,8.30
2018-03-27T18:00:53.620Z,8.40
2018-03-27T18:03:21.236Z,8.40
2018-03-27T18:05:48.861Z,8.30
2018-03-27T18:08:16.481Z,8.30
2018-03-27T18:10:44.873Z,8.30
2018-03-27T18:13:12.501Z,8.20
2018-03-27T18:15:40.116Z,8.20
2018-03-27T18:18:07.741Z,8.20
2018-03-27T18:20:35.360Z,8.10
2018-03-27T18:23:02.981Z,8.10
2018-03-27T18:25:30.608Z,8.10
2018-03-27T18:27:58.239Z,8.10
2018-03-27T18:30:25.874Z,7.90
2018-03-27T18:32:53.493Z,7.90
2018-03-27T18:35:21.199Z,7.70
2018-03-27T18:37:48.904Z,7.60
2018-03-27T18:40:17.334Z,7.50
2018-03-27T18:42:44.991Z,7.50
2018-03-27T18:45:12.667Z,7.40
2018-03-27T18:47:40.318Z,7.40
2018-03-27T18:50:07.968Z,7.40
2018-03-27T18:52:35.635Z,7.30
2018-03-27T18:55:03.276Z,7.30
2018-03-27T18:57:32.618Z,7.20
2018-03-27T19:00:00.365Z,7.20
2018-03-27T19:02:27.995Z,7.20
2018-03-27T19:04:55.653Z,7.10
2018-03-27T19:07:23.286Z,7.20
2018-03-27T19:09:50.952Z,7.20
2018-03-27T19:12:18.603Z,7.20
2018-03-27T19:14:47.006Z,7.30
2018-03-27T19:17:21.071Z,7.20
2018-03-27T19:19:48.897Z,7.30
2018-03-27T19:22:16.545Z,7.30
2018-03-27T19:24:44.210Z,7.30
2018-03-27T19:27:11.863Z,7.30
2018-03-27T19:29:40.278Z,7.40
2018-03-27T19:32:07.924Z,7.40
2018-03-27T19:34:35.585Z,7.30
2018-03-27T19:37:03.292Z,7.20
2018-03-27T19:39:30.935Z,7.20
2018-03-27T19:42:04.217Z,7.20
2018-03-27T19:44:31.901Z,7.20
2018-03-27T19:46:59.556Z,7.20
2018-03-27T19:49:27.230Z,7.30
2018-03-27T19:51:54.937Z,7.30
2018-03-27T19:54:22.846Z,7.20
2018-03-27T19:56:51.263Z,7.30
2018-03-27T19:59:18.931Z,7.30
2018-03-27T20:01:46.581Z,7.20
2018-03-27T20:04:14.226Z,7.30
2018-03-27T20:06:41.911Z,7.30
2018-03-27T20:09:09.537Z,7.40
2018-03-27T20:11:37.194Z,7.30
2018-03-27T20:14:04.855Z,7.30
2018-03-27T20:16:32.518Z,7.30
2018-03-27T20:19:00.170Z,7.20
2018-03-27T20:21:27.863Z,7.20
2018-03-27T20:23:55.521Z,7.20
2018-03-27T20:26:23.199Z,7.20
2018-03-27T20:28:50.855Z,7.20
2018-03-27T20:31:18.498Z,7.20
2018-03-27T20:33:46.264Z,7.20
2018-03-27T20:36:13.916Z,7.20
2018-03-27T20:38:41.566Z,7.20
2018-03-27T20:41:09.246Z,7.20
2018-03-27T20:43:36.900Z,7.20
2018-03-27T20:46:05.291Z,7.00
2018-03-27T20:48:32.936Z,7.00
2018-03-27T20:51:01.333Z,6.90
2018-03-27T20:53:29.077Z,6.90
2018-03-27T20:55:57.548Z,6.90
2018-03-27T20:58:25.188Z,6.90
2018-03-27T21:00:52.846Z,7.00
2018-03-27T21:03:20.505Z,7.00
2018-03-27T21:05:48.178Z,7.00
2018-03-27T21:08:15.835Z,6.90
2018-03-27T21:10:43.470Z,6.90
2018-03-27T21:13:11.852Z,6.90
2018-03-27T21:15:40.258Z,6.90
2018-03-27T21:18:07.881Z,6.90
2018-03-27T21:20:52.445Z,6.90
2018-03-27T21:23:20.081Z,6.90
2018-03-27T21:25:47.700Z,6.90
2018-03-27T21:28:15.349Z,6.90
2018-03-27T21:30:43.733Z,7.00
2018-03-27T21:33:12.117Z,6.90
2018-03-27T21:35:40.507Z,6.90
2018-03-27T21:38:08.895Z,6.90
2018-03-27T21:40:36.524Z,6.90
2018-03-27T21:43:04.148Z,7.00
2018-03-27T21:45:31.768Z,7.00
2018-03-27T21:47:59.392Z,7.00
2018-03-27T21:50:27.014Z,7.00
2018-03-27T21:52:55.408Z,7.00
2018-03-27T21:55:23.033Z,7.00
2018-03-27T21:57:50.665Z,7.00
2018-03-27T22:00:21.745Z,7.00
2018-03-27T22:02:49.359Z,7.00
2018-03-27T22:05:16.985Z,7.10
2018-03-27T22:07:44.611Z,7.00
2018-03-27T22:10:12.224Z,6.90
2018-03-27T22:12:39.843Z,6.90
2018-03-27T22:15:07.469Z,6.80
2018-03-27T22:17:35.860Z,6.90
2018-03-27T22:20:04.245Z,6.90
2018-03-27T22:22:32.019Z,6.80
2018-03-27T22:25:00.388Z,6.80
2018-03-27T22:27:28.783Z,6.80
2018-03-27T22:29:56.420Z,6.80
2018-03-27T22:32:24.065Z,6.80
2018-03-27T22:34:51.677Z,6.90
2018-03-27T22:37:20.064Z,6.90
2018-03-27T22:39:47.897Z,6.90
2018-03-27T22:42:15.517Z,6.90
2018-03-27T22:44:43.142Z,6.90
2018-03-27T22:47:10.752Z,6.90
2018-03-27T22:49:38.373Z,6.90
2018-03-27T22:52:06.005Z,6.90
2018-03-27T22:54:33.628Z,7.00
2018-03-27T22:57:01.265Z,7.00
2018-03-27T22:59:28.880Z,7.00
2018-03-27T23:01:56.488Z,7.00
2018-03-27T23:04:24.104Z,6.90
2018-03-27T23:06:51.717Z,6.90
2018-03-27T23:09:19.337Z,6.90
2018-03-27T23:11:46.950Z,6.90
2018-03-27T23:14:14.569Z,7.00
2018-03-27T23:16:42.193Z,7.00
2018-03-27T23:19:09.808Z,7.00
2018-03-27T23:21:37.424Z,7.10
2018-03-27T23:24:05.052Z,7.00
2018-03-27T23:26:33.699Z,6.90
2018-03-27T23:29:02.089Z,7.00
2018-03-27T23:31:29.724Z,7.00
2018-03-27T23:33:57.344Z,7.00
2018-03-27T23:36:24.973Z,7.00
2018-03-27T23:38:53.373Z,7.00
2018-03-27T23:41:21.753Z,6.90
2018-03-27T23:43:49.389Z,6.90
2018-03-27T23:46:17.973Z,7.00
2018-03-27T23:48:45.756Z,7.00
2018-03-27T23:51:14.145Z,6.90
2018-03-27T23:53:42.532Z,6.90
2018-03-27T23:56:10.176Z,6.90
2018-03-27T23:58:37.793Z,6.90
